Terminal Aerodrome Forecast
Issued by NWS Grand Forks, ND

Home | Current Version | Previous Version | Text Only | Print | Product List | Glossary Off
Versions: 1 2 3 4 5 6 7 8 9 10 11 12 13 14 15 16 17

000
FTUS43 KFGF 210600 AAA
TAFGFK
TAF AMD
KGFK 210639Z 2107/2206 14008KT P6SM BKN150
     FM211000 14005KT P6SM BKN080
     FM211400 11005KT P6SM VCSH BKN050
     FM220000 VRB05KT P6SM BKN120=

USA.gov is the U.S. government's official web portal to all federal, state and local government web resources and services.